createdAt,value
2023-03-07T00:01:00.325Z,2.29
2023-03-07T00:02:32.295Z,2.27
2023-03-07T00:04:04.819Z,2.24
2023-03-07T00:05:36.799Z,2.20
2023-03-07T00:07:08.799Z,2.16
2023-03-07T00:08:43.249Z,2.21
2023-03-07T00:10:15.502Z,2.21
2023-03-07T00:11:47.572Z,2.25
2023-03-07T00:13:19.644Z,2.26
2023-03-07T00:14:59.353Z,2.29
2023-03-07T00:16:31.423Z,2.27
2023-03-07T00:18:03.633Z,2.30
2023-03-07T00:19:35.733Z,2.31
2023-03-07T00:21:09.808Z,2.31
2023-03-07T00:22:42.283Z,2.26
2023-03-07T00:24:14.288Z,2.25
2023-03-07T00:25:46.303Z,2.26
2023-03-07T00:27:18.277Z,2.30
2023-03-07T00:28:52.027Z,2.35
2023-03-07T00:30:24.036Z,2.34
2023-03-07T00:31:56.088Z,2.37
2023-03-07T00:33:28.378Z,2.37
2023-03-07T00:35:01.125Z,2.37
2023-03-07T00:36:35.312Z,2.41
2023-03-07T00:38:07.452Z,2.34
2023-03-07T00:39:39.490Z,2.32
2023-03-07T00:41:17.059Z,2.31
2023-03-07T00:42:49.129Z,2.22
2023-03-07T00:44:35.796Z,2.16
2023-03-07T00:46:08.390Z,2.26
2023-03-07T00:47:40.405Z,2.30
2023-03-07T00:49:14.694Z,2.31
2023-03-07T00:50:47.257Z,2.35
2023-03-07T00:52:19.344Z,2.36
2023-03-07T00:53:51.800Z,2.37
2023-03-07T00:55:23.829Z,2.37
2023-03-07T00:56:55.767Z,2.36
2023-03-07T00:58:29.532Z,2.40
2023-03-07T01:00:01.483Z,2.29
2023-03-07T01:01:33.509Z,2.29
2023-03-07T01:03:05.571Z,2.27
2023-03-07T01:04:37.648Z,2.30
2023-03-07T01:06:13.268Z,2.33
